Time;durP1;ratioP1;P1;durP2;ratioP2;P2;SDS_P1;SDS_P2;PMS_P1;PMS_P2;Temp;Humidity;BMP_temperature;BMP_pressure;BME280_temperature;BME280_humidity;BME280_pressure;Samples;Min_cycle;Max_cycle;Signal;HPM_P1;HPM_P2
2023/12/15 00:00:24;;;;;;;97.13;35.10;;;;;;;;;;5036139;28;20055;-61
2023/12/15 00:02:50;;;;;;;108.05;36.15;;;;;;;;;;5034255;28;20049;-61
2023/12/15 00:05:16;;;;;;;111.90;37.30;;;;;;;;;;5034674;28;20091;-61
2023/12/15 00:07:42;;;;;;;115.55;37.05;;;;;;;;;;5033640;28;20037;-61
2023/12/15 00:10:09;;;;;;;116.32;39.40;;;;;;;;;;5049191;28;20159;-61
2023/12/15 00:12:35;;;;;;;105.18;37.97;;;;;;;;;;5032915;28;20038;-61
2023/12/15 00:15:01;;;;;;;122.20;39.38;;;;;;;;;;5034014;28;20162;-61
2023/12/15 00:17:27;;;;;;;135.27;41.28;;;;;;;;;;5032567;28;20044;-61
2023/12/15 00:19:53;;;;;;;118.85;40.80;;;;;;;;;;5038050;28;20144;-61
2023/12/15 00:22:19;;;;;;;118.00;39.97;;;;;;;;;;5023810;28;20040;-61
2023/12/15 00:24:46;;;;;;;131.45;41.55;;;;;;;;;;5032915;28;20124;-61
2023/12/15 00:27:12;;;;;;;126.20;40.90;;;;;;;;;;5033453;28;20048;-61
2023/12/15 00:29:38;;;;;;;150.63;41.95;;;;;;;;;;5035714;28;20052;-61
2023/12/15 00:32:04;;;;;;;139.77;41.58;;;;;;;;;;5007332;28;20037;-61
2023/12/15 00:34:30;;;;;;;141.20;40.85;;;;;;;;;;5035170;28;20048;-61
2023/12/15 00:36:57;;;;;;;138.85;43.15;;;;;;;;;;5019616;28;20049;-61
2023/12/15 00:39:23;;;;;;;142.10;42.05;;;;;;;;;;5022447;28;20037;-61
2023/12/15 00:41:49;;;;;;;145.70;42.15;;;;;;;;;;5049821;28;20415;-61
2023/12/15 00:44:15;;;;;;;159.90;43.05;;;;;;;;;;5033821;28;20155;-61
2023/12/15 00:46:41;;;;;;;152.02;42.67;;;;;;;;;;5031002;28;20037;-61
2023/12/15 00:49:07;;;;;;;139.68;43.03;;;;;;;;;;5028832;28;20069;-61
2023/12/15 00:51:34;;;;;;;160.10;43.38;;;;;;;;;;5033879;28;20049;-61
2023/12/15 00:54:00;;;;;;;140.27;41.65;;;;;;;;;;5051842;28;20064;-61
2023/12/15 00:56:27;;;;;;;176.55;45.03;;;;;;;;;;5031664;28;20041;-61
2023/12/15 00:58:53;;;;;;;144.43;42.13;;;;;;;;;;5017952;28;20045;-61
2023/12/15 01:01:19;;;;;;;148.80;41.53;;;;;;;;;;5023893;28;20041;-61
2023/12/15 01:03:45;;;;;;;143.95;42.67;;;;;;;;;;5026010;28;20441;-61
2023/12/15 01:06:11;;;;;;;161.32;43.03;;;;;;;;;;5030416;28;20056;-61
2023/12/15 01:08:37;;;;;;;149.32;41.63;;;;;;;;;;5030845;28;20045;-61
2023/12/15 01:11:04;;;;;;;160.10;45.20;;;;;;;;;;5032684;28;20051;-61
2023/12/15 01:13:30;;;;;;;167.23;43.88;;;;;;;;;;5046771;28;20392;-61
2023/12/15 01:15:56;;;;;;;167.95;44.65;;;;;;;;;;5026159;28;20403;-61
2023/12/15 01:18:22;;;;;;;187.90;46.15;;;;;;;;;;5051122;28;20152;-61
2023/12/15 01:20:48;;;;;;;178.07;46.83;;;;;;;;;;5023599;28;20306;-61
2023/12/15 01:23:14;;;;;;;190.43;48.50;;;;;;;;;;5018522;28;20112;-61
2023/12/15 01:25:40;;;;;;;163.27;44.08;;;;;;;;;;5031308;28;20445;-61
2023/12/15 01:28:07;;;;;;;183.30;45.65;;;;;;;;;;5031343;28;20053;-61
2023/12/15 01:30:33;;;;;;;175.00;45.20;;;;;;;;;;5028700;28;20048;-61
2023/12/15 01:32:59;;;;;;;157.63;43.92;;;;;;;;;;5021548;28;20044;-61
2023/12/15 01:35:25;;;;;;;165.75;44.33;;;;;;;;;;5047077;28;20120;-61
2023/12/15 01:37:51;;;;;;;158.30;43.72;;;;;;;;;;5034536;28;20037;-61
2023/12/15 01:40:17;;;;;;;140.27;41.85;;;;;;;;;;5031211;28;20270;-61
2023/12/15 01:42:44;;;;;;;138.55;42.55;;;;;;;;;;5031127;28;20048;-61
2023/12/15 01:45:10;;;;;;;150.57;42.72;;;;;;;;;;5030704;28;20055;-61
2023/12/15 01:47:36;;;;;;;137.82;43.28;;;;;;;;;;5029704;28;20041;-61
2023/12/15 01:50:03;;;;;;;146.82;41.85;;;;;;;;;;5033678;28;20464;-61
2023/12/15 01:52:29;;;;;;;129.80;40.40;;;;;;;;;;5032098;28;20055;-61
2023/12/15 01:54:55;;;;;;;145.25;41.22;;;;;;;;;;5034439;28;20396;-61
2023/12/15 01:57:22;;;;;;;146.40;40.50;;;;;;;;;;5020688;28;20188;-61
2023/12/15 01:59:51;;;;;;;134.50;40.17;;;;;;;;;;5031122;28;20049;-61
2023/12/15 02:02:18;;;;;;;143.70;41.33;;;;;;;;;;5047913;28;20472;-61
2023/12/15 02:04:45;;;;;;;136.02;40.90;;;;;;;;;;5027993;28;20461;-61
2023/12/15 02:07:11;;;;;;;115.90;39.03;;;;;;;;;;5017279;28;20048;-61
2023/12/15 02:09:38;;;;;;;138.82;38.72;;;;;;;;;;5028083;28;20187;-61
2023/12/15 02:12:05;;;;;;;104.15;34.90;;;;;;;;;;5046501;28;20045;-61
2023/12/15 02:14:31;;;;;;;122.95;40.28;;;;;;;;;;5043300;28;20037;-61
2023/12/15 02:16:57;;;;;;;119.03;37.28;;;;;;;;;;5019997;28;20041;-61
2023/12/15 02:19:24;;;;;;;107.70;35.72;;;;;;;;;;5051529;28;20049;-62
2023/12/15 02:21:51;;;;;;;103.85;36.10;;;;;;;;;;5029153;28;20044;-61
2023/12/15 02:24:17;;;;;;;109.55;35.50;;;;;;;;;;5032767;28;20063;-61
2023/12/15 02:26:43;;;;;;;109.45;34.28;;;;;;;;;;5032696;28;20055;-61
2023/12/15 02:29:09;;;;;;;95.75;33.80;;;;;;;;;;5025671;28;20052;-61
2023/12/15 02:31:35;;;;;;;113.93;35.88;;;;;;;;;;5023210;28;20045;-61
2023/12/15 02:34:01;;;;;;;109.63;34.53;;;;;;;;;;5024570;28;20132;-61
2023/12/15 02:36:28;;;;;;;100.40;34.05;;;;;;;;;;5051047;28;20519;-61
2023/12/15 02:38:58;;;;;;;110.90;34.53;;;;;;;;;;5029610;28;20195;-61
2023/12/15 02:41:24;;;;;;;102.93;33.67;;;;;;;;;;5017210;28;20055;-61
2023/12/15 02:43:50;;;;;;;117.07;35.15;;;;;;;;;;5047074;28;20390;-61
2023/12/15 02:46:16;;;;;;;104.35;33.83;;;;;;;;;;5034585;28;20342;-61
2023/12/15 02:48:43;;;;;;;116.47;32.88;;;;;;;;;;5034113;28;20046;-61
2023/12/15 02:51:10;;;;;;;100.63;34.13;;;;;;;;;;5049729;28;20444;-61
2023/12/15 02:53:37;;;;;;;102.43;34.25;;;;;;;;;;5035006;28;20511;-61
2023/12/15 02:56:04;;;;;;;104.10;33.47;;;;;;;;;;5036591;28;20057;-61
2023/12/15 02:58:30;;;;;;;99.90;31.58;;;;;;;;;;5035675;28;20041;-61
2023/12/15 03:00:56;;;;;;;106.97;33.60;;;;;;;;;;5036292;28;20084;-61
2023/12/15 03:03:22;;;;;;;122.43;33.78;;;;;;;;;;5036226;28;20470;-61
2023/12/15 03:05:48;;;;;;;114.72;33.25;;;;;;;;;;5032495;28;20049;-61
2023/12/15 03:08:14;;;;;;;105.15;31.77;;;;;;;;;;5024936;28;20132;-61
2023/12/15 03:10:41;;;;;;;113.93;30.17;;;;;;;;;;5024782;28;20439;-61
2023/12/15 03:13:07;;;;;;;112.40;32.83;;;;;;;;;;5035857;28;20112;-61
2023/12/15 03:15:33;;;;;;;126.32;33.78;;;;;;;;;;5033153;28;20053;-61
2023/12/15 03:17:59;;;;;;;102.93;30.33;;;;;;;;;;5032538;28;20078;-61
2023/12/15 03:20:25;;;;;;;129.93;30.20;;;;;;;;;;5027397;28;20099;-61
2023/12/15 03:22:53;;;;;;;108.57;29.33;;;;;;;;;;5021527;28;20077;-61
2023/12/15 03:25:19;;;;;;;104.75;28.55;;;;;;;;;;5026053;28;20057;-61
2023/12/15 03:27:45;;;;;;;96.10;28.08;;;;;;;;;;5032573;28;20041;-61
2023/12/15 03:30:11;;;;;;;101.03;28.73;;;;;;;;;;5026778;28;20054;-61
2023/12/15 03:32:38;;;;;;;86.97;24.95;;;;;;;;;;5025930;28;20052;-61
2023/12/15 03:35:04;;;;;;;83.07;25.92;;;;;;;;;;5021962;28;20045;-61
2023/12/15 03:37:30;;;;;;;72.95;24.50;;;;;;;;;;5026890;28;20384;-61
2023/12/15 03:39:57;;;;;;;74.20;23.55;;;;;;;;;;5011766;28;20072;-61
2023/12/15 03:42:23;;;;;;;82.32;25.30;;;;;;;;;;5027645;28;20045;-61
2023/12/15 03:44:49;;;;;;;81.45;23.90;;;;;;;;;;5030580;28;20151;-61
2023/12/15 03:47:15;;;;;;;69.80;24.08;;;;;;;;;;5023775;28;20046;-61
2023/12/15 03:49:41;;;;;;;65.07;24.58;;;;;;;;;;5024330;28;20125;-61
2023/12/15 03:52:07;;;;;;;65.65;22.55;;;;;;;;;;5025505;28;20086;-61
2023/12/15 03:54:34;;;;;;;71.25;23.38;;;;;;;;;;5027991;28;20132;-61
2023/12/15 03:57:00;;;;;;;67.70;23.05;;;;;;;;;;5025070;28;20038;-61
2023/12/15 03:59:26;;;;;;;60.90;20.90;;;;;;;;;;5028118;28;20493;-61
2023/12/15 04:01:52;;;;;;;72.75;22.90;;;;;;;;;;5030922;28;20495;-61
2023/12/15 04:04:18;;;;;;;61.53;20.73;;;;;;;;;;5025417;28;20556;-61
2023/12/15 04:06:45;;;;;;;81.65;20.60;;;;;;;;;;5032528;28;20043;-61
2023/12/15 04:09:11;;;;;;;67.72;22.33;;;;;;;;;;5022904;28;20140;-61
2023/12/15 04:11:37;;;;;;;77.20;21.02;;;;;;;;;;5032401;28;20499;-61
2023/12/15 04:14:08;;;;;;;66.10;20.63;;;;;;;;;;5032515;28;20033;-61
2023/12/15 04:16:35;;;;;;;65.88;18.20;;;;;;;;;;5029605;28;20048;-61
2023/12/15 04:19:01;;;;;;;102.25;19.90;;;;;;;;;;5028297;28;20145;-61
2023/12/15 04:21:27;;;;;;;82.60;17.58;;;;;;;;;;5026093;28;20068;-61
2023/12/15 04:23:53;;;;;;;109.95;17.58;;;;;;;;;;5028910;28;20138;-61
2023/12/15 04:26:20;;;;;;;125.35;19.05;;;;;;;;;;5031237;28;20047;-61
2023/12/15 04:28:46;;;;;;;188.00;20.10;;;;;;;;;;5029622;28;20069;-61
2023/12/15 04:31:13;;;;;;;92.72;16.17;;;;;;;;;;5029544;28;20052;-61
2023/12/15 04:33:39;;;;;;;71.68;15.05;;;;;;;;;;5031502;28;20048;-61
2023/12/15 04:36:05;;;;;;;58.58;13.93;;;;;;;;;;5029397;28;20046;-61
2023/12/15 04:38:32;;;;;;;38.35;12.85;;;;;;;;;;5025320;28;20559;-61
2023/12/15 04:40:58;;;;;;;70.78;15.10;;;;;;;;;;5030181;28;20501;-61
2023/12/15 04:43:24;;;;;;;44.58;12.93;;;;;;;;;;5030024;28;20041;-61
2023/12/15 04:45:50;;;;;;;46.47;12.65;;;;;;;;;;5032575;28;20037;-61
2023/12/15 04:48:16;;;;;;;56.97;15.90;;;;;;;;;;5024719;28;20041;-61
2023/12/15 04:50:42;;;;;;;49.33;13.48;;;;;;;;;;5027329;28;20037;-61
2023/12/15 04:53:09;;;;;;;52.80;13.73;;;;;;;;;;5031647;28;20173;-61
2023/12/15 04:55:35;;;;;;;52.83;13.18;;;;;;;;;;5019428;28;20084;-61
2023/12/15 04:58:01;;;;;;;50.70;12.43;;;;;;;;;;5024428;28;20050;-61
2023/12/15 05:00:27;;;;;;;47.05;14.10;;;;;;;;;;5025630;28;20466;-61
2023/12/15 05:02:53;;;;;;;44.70;11.43;;;;;;;;;;5000953;28;20508;-61
2023/12/15 05:05:19;;;;;;;54.60;11.50;;;;;;;;;;5028996;28;20064;-61
2023/12/15 05:07:45;;;;;;;53.65;13.68;;;;;;;;;;5024367;28;20123;-61
2023/12/15 05:10:12;;;;;;;41.53;10.52;;;;;;;;;;5027109;28;20061;-61
2023/12/15 05:12:38;;;;;;;53.75;12.02;;;;;;;;;;5029460;28;20053;-61
2023/12/15 05:15:04;;;;;;;60.25;12.68;;;;;;;;;;5030471;28;20049;-61
2023/12/15 05:17:31;;;;;;;55.33;11.70;;;;;;;;;;5026574;28;20037;-61
2023/12/15 05:19:58;;;;;;;46.35;10.57;;;;;;;;;;5028711;28;20056;-61
2023/12/15 05:22:24;;;;;;;51.25;10.38;;;;;;;;;;5017910;28;20063;-61
2023/12/15 05:24:54;;;;;;;46.08;9.98;;;;;;;;;;5031716;28;20129;-61
2023/12/15 05:27:20;;;;;;;54.28;10.23;;;;;;;;;;5021477;28;20124;-61
2023/12/15 05:29:46;;;;;;;46.85;9.80;;;;;;;;;;5026116;28;20073;-61
2023/12/15 05:32:17;;;;;;;49.95;9.50;;;;;;;;;;5030623;28;20151;-61
2023/12/15 05:34:43;;;;;;;43.45;9.93;;;;;;;;;;5023846;28;20107;-61
2023/12/15 05:37:10;;;;;;;47.13;9.25;;;;;;;;;;5032455;28;20095;-61
2023/12/15 05:39:36;;;;;;;49.95;9.00;;;;;;;;;;5026274;28;20057;-61
2023/12/15 05:42:03;;;;;;;65.72;9.57;;;;;;;;;;5017894;28;20065;-61
2023/12/15 05:44:29;;;;;;;51.28;9.77;;;;;;;;;;5010075;28;20104;-61
2023/12/15 05:46:55;;;;;;;60.25;9.73;;;;;;;;;;5024836;28;20049;-61
2023/12/15 05:49:22;;;;;;;54.67;9.77;;;;;;;;;;5027969;28;20448;-61
2023/12/15 05:51:48;;;;;;;48.97;8.10;;;;;;;;;;5030052;28;20120;-61
2023/12/15 05:54:15;;;;;;;52.58;9.45;;;;;;;;;;5030884;28;20053;-61
2023/12/15 05:56:41;;;;;;;55.13;9.23;;;;;;;;;;5029537;28;20045;-62
2023/12/15 05:59:08;;;;;;;52.67;10.68;;;;;;;;;;5021333;28;20057;-61
2023/12/15 06:01:34;;;;;;;55.58;8.35;;;;;;;;;;5030072;28;20443;-61
2023/12/15 06:04:00;;;;;;;33.83;8.02;;;;;;;;;;5030825;28;20072;-61
2023/12/15 06:06:26;;;;;;;45.92;8.40;;;;;;;;;;5012712;28;20045;-61
2023/12/15 06:08:53;;;;;;;64.80;9.20;;;;;;;;;;5026021;28;20037;-61
2023/12/15 06:11:20;;;;;;;51.72;9.20;;;;;;;;;;5026036;28;20132;-62
2023/12/15 06:13:46;;;;;;;56.70;8.73;;;;;;;;;;5027141;28;20437;-61
2023/12/15 06:16:19;;;;;;;53.30;8.45;;;;;;;;;;5028321;28;20045;-62
2023/12/15 06:18:46;;;;;;;52.10;9.10;;;;;;;;;;5031892;28;20048;-62
2023/12/15 06:21:22;;;;;;;47.38;8.10;;;;;;;;;;5032856;28;20071;-62
2023/12/15 06:23:48;;;;;;;51.00;8.57;;;;;;;;;;5031573;28;20056;-62
2023/12/15 06:26:21;;;;;;;48.83;8.68;;;;;;;;;;5032851;28;20121;-62
2023/12/15 06:28:47;;;;;;;50.33;8.48;;;;;;;;;;5051229;28;20539;-62
2023/12/15 06:31:14;;;;;;;54.92;8.82;;;;;;;;;;5008624;28;20155;-62
2023/12/15 06:33:40;;;;;;;52.67;8.98;;;;;;;;;;5050338;28;20052;-62
2023/12/15 06:36:10;;;;;;;49.25;8.90;;;;;;;;;;5026885;28;20135;-62
2023/12/15 06:38:36;;;;;;;54.78;9.85;;;;;;;;;;5030662;28;20045;-62
2023/12/15 06:41:06;;;;;;;57.65;7.95;;;;;;;;;;5029553;28;20163;-62
2023/12/15 06:43:32;;;;;;;54.08;9.23;;;;;;;;;;5045176;28;20492;-62
2023/12/15 06:45:58;;;;;;;50.33;7.20;;;;;;;;;;5030392;28;20124;-62
2023/12/15 06:48:24;;;;;;;54.38;8.93;;;;;;;;;;5030587;28;20041;-62
2023/12/15 06:50:51;;;;;;;45.90;8.98;;;;;;;;;;5029064;28;20049;-61
2023/12/15 06:53:17;;;;;;;45.20;7.57;;;;;;;;;;5012604;28;20099;-62
2023/12/15 06:55:43;;;;;;;47.10;8.82;;;;;;;;;;5048350;28;20033;-61
2023/12/15 06:58:09;;;;;;;48.03;7.35;;;;;;;;;;5030344;28;20434;-61
2023/12/15 07:00:36;;;;;;;51.75;7.28;;;;;;;;;;5047590;28;20059;-61
2023/12/15 07:03:02;;;;;;;38.40;7.28;;;;;;;;;;5048391;28;20041;-61
2023/12/15 07:05:28;;;;;;;45.97;7.28;;;;;;;;;;5027175;28;20251;-61
2023/12/15 07:07:55;;;;;;;43.90;7.40;;;;;;;;;;5047236;28;20049;-61
2023/12/15 07:10:21;;;;;;;56.20;7.43;;;;;;;;;;5028736;28;20057;-61
2023/12/15 07:12:47;;;;;;;49.92;7.57;;;;;;;;;;5027874;28;20037;-61
2023/12/15 07:15:15;;;;;;;39.33;6.60;;;;;;;;;;5045425;28;20395;-61
2023/12/15 07:17:41;;;;;;;37.70;7.97;;;;;;;;;;5029302;28;20052;-61
2023/12/15 07:20:10;;;;;;;41.92;7.05;;;;;;;;;;5044759;28;20440;-61
2023/12/15 07:22:36;;;;;;;63.13;8.27;;;;;;;;;;5043715;28;20041;-61
2023/12/15 07:25:03;;;;;;;55.47;8.68;;;;;;;;;;5026281;28;20077;-61
2023/12/15 07:27:29;;;;;;;49.38;7.65;;;;;;;;;;5026303;28;20147;-61
2023/12/15 07:29:55;;;;;;;64.07;9.35;;;;;;;;;;5045702;28;20057;-61
2023/12/15 07:32:21;;;;;;;55.28;8.30;;;;;;;;;;5030263;28;20063;-61
2023/12/15 07:34:48;;;;;;;66.28;8.85;;;;;;;;;;5049723;28;20064;-61
2023/12/15 07:37:14;;;;;;;61.85;8.52;;;;;;;;;;5051495;28;20041;-62
2023/12/15 07:39:40;;;;;;;51.40;8.63;;;;;;;;;;5034449;28;20049;-61
2023/12/15 07:42:06;;;;;;;60.40;8.82;;;;;;;;;;5053969;28;20480;-61
2023/12/15 07:44:32;;;;;;;50.58;9.00;;;;;;;;;;5038973;28;20091;-61
2023/12/15 07:46:58;;;;;;;55.72;9.35;;;;;;;;;;5031533;28;20158;-61
2023/12/15 07:49:25;;;;;;;52.45;8.57;;;;;;;;;;5054083;28;20132;-62
2023/12/15 07:51:51;;;;;;;62.20;9.20;;;;;;;;;;5035686;28;20037;-61
2023/12/15 07:54:21;;;;;;;55.28;9.88;;;;;;;;;;5036091;28;20057;-61
2023/12/15 07:56:47;;;;;;;71.20;11.05;;;;;;;;;;5025680;28;20041;-61
2023/12/15 07:59:13;;;;;;;49.08;10.48;;;;;;;;;;5054391;28;20382;-61
2023/12/15 08:01:39;;;;;;;56.28;9.88;;;;;;;;;;5017364;28;20045;-61
2023/12/15 08:04:05;;;;;;;60.85;8.38;;;;;;;;;;5041418;28;22221;-62
2023/12/15 08:06:33;;;;;;;46.75;8.57;;;;;;;;;;5026337;28;20049;-62
2023/12/15 08:08:59;;;;;;;43.28;8.95;;;;;;;;;;5032718;28;20507;-62
2023/12/15 08:11:26;;;;;;;54.97;8.73;;;;;;;;;;5035793;28;20440;-61
2023/12/15 08:13:52;;;;;;;49.70;8.15;;;;;;;;;;5030748;28;20061;-61
2023/12/15 08:16:18;;;;;;;50.13;8.02;;;;;;;;;;5051792;28;20108;-61
2023/12/15 08:18:44;;;;;;;58.60;9.57;;;;;;;;;;5052984;28;20068;-61
2023/12/15 08:21:11;;;;;;;61.03;7.97;;;;;;;;;;5030897;28;20136;-61
2023/12/15 08:23:37;;;;;;;57.50;8.80;;;;;;;;;;5034002;28;20083;-61
2023/12/15 08:26:03;;;;;;;50.33;7.47;;;;;;;;;;5035551;28;20049;-61
2023/12/15 08:28:30;;;;;;;48.40;7.03;;;;;;;;;;5053748;28;20474;-61
2023/12/15 08:30:56;;;;;;;52.75;7.63;;;;;;;;;;5052590;28;20136;-61
2023/12/15 08:33:22;;;;;;;55.80;10.23;;;;;;;;;;5049755;28;20448;-61
2023/12/15 08:35:48;;;;;;;53.72;9.55;;;;;;;;;;5019411;28;20041;-62
2023/12/15 08:38:14;;;;;;;63.80;7.65;;;;;;;;;;5031382;28;20061;-61
2023/12/15 08:40:41;;;;;;;67.40;7.55;;;;;;;;;;5030628;28;20136;-61
2023/12/15 08:43:07;;;;;;;64.97;9.13;;;;;;;;;;5032277;28;20066;-61
2023/12/15 08:45:33;;;;;;;61.83;9.45;;;;;;;;;;5035273;28;20398;-61
2023/12/15 08:47:59;;;;;;;50.13;9.07;;;;;;;;;;5032291;28;20045;-62
2023/12/15 08:50:26;;;;;;;46.55;7.80;;;;;;;;;;5029400;28;20048;-61
2023/12/15 08:52:52;;;;;;;55.95;9.15;;;;;;;;;;5048317;28;20040;-62
2023/12/15 08:55:19;;;;;;;74.78;9.75;;;;;;;;;;5047803;28;20048;-62
2023/12/15 08:57:45;;;;;;;51.50;8.88;;;;;;;;;;5030523;28;20527;-61
2023/12/15 09:00:12;;;;;;;54.13;7.80;;;;;;;;;;5035373;28;20037;-61
2023/12/15 09:02:38;;;;;;;71.22;10.95;;;;;;;;;;5032618;28;20501;-61
2023/12/15 09:05:04;;;;;;;73.80;10.40;;;;;;;;;;5034749;28;20518;-61
2023/12/15 09:07:30;;;;;;;55.80;9.25;;;;;;;;;;5053431;28;20103;-61
2023/12/15 09:09:56;;;;;;;55.22;11.88;;;;;;;;;;5048145;28;20059;-61
2023/12/15 09:12:23;;;;;;;71.88;10.35;;;;;;;;;;5049120;28;20054;-61
2023/12/15 09:14:50;;;;;;;65.55;10.32;;;;;;;;;;5051770;28;20411;-64
2023/12/15 09:17:16;;;;;;;59.20;9.35;;;;;;;;;;5018704;28;20357;-67
2023/12/15 09:19:42;;;;;;;53.42;10.38;;;;;;;;;;5027697;28;20496;-70
2023/12/15 09:22:08;;;;;;;57.85;10.43;;;;;;;;;;5013468;28;20504;-67
2023/12/15 09:24:34;;;;;;;49.75;11.90;;;;;;;;;;5026937;28;20128;-61
2023/12/15 09:27:01;;;;;;;57.92;11.25;;;;;;;;;;5026560;28;20060;-60
2023/12/15 09:29:27;;;;;;;61.20;10.65;;;;;;;;;;5029893;28;20103;-61
2023/12/15 09:31:53;;;;;;;59.70;12.65;;;;;;;;;;5030517;28;20499;-61
2023/12/15 09:34:19;;;;;;;58.22;10.00;;;;;;;;;;5027696;28;20137;-61
2023/12/15 09:36:46;;;;;;;61.55;10.07;;;;;;;;;;5031262;28;20041;-62
2023/12/15 09:39:12;;;;;;;71.35;11.10;;;;;;;;;;5030488;28;20132;-61
2023/12/15 09:41:38;;;;;;;62.45;12.75;;;;;;;;;;5032428;28;20041;-62
2023/12/15 09:44:05;;;;;;;64.82;11.43;;;;;;;;;;5038423;28;20473;-62
2023/12/15 09:46:31;;;;;;;63.08;9.63;;;;;;;;;;5029445;28;20892;-62
2023/12/15 09:48:58;;;;;;;58.05;10.82;;;;;;;;;;5029843;28;20504;-62
2023/12/15 09:51:25;;;;;;;64.57;10.85;;;;;;;;;;5025623;28;20374;-62
2023/12/15 09:53:51;;;;;;;51.78;11.38;;;;;;;;;;5024261;28;20430;-62
2023/12/15 09:56:18;;;;;;;75.93;12.20;;;;;;;;;;5028875;28;20045;-62
2023/12/15 09:58:45;;;;;;;68.68;9.90;;;;;;;;;;5027887;28;20042;-62
2023/12/15 10:01:12;;;;;;;70.68;10.23;;;;;;;;;;5027484;28;20148;-62
2023/12/15 10:03:39;;;;;;;54.78;9.73;;;;;;;;;;5028901;28;20349;-62
2023/12/15 10:06:05;;;;;;;53.80;9.23;;;;;;;;;;5024248;28;20058;-62
2023/12/15 10:08:41;;;;;;;72.72;13.75;;;;;;;;;;5024386;28;20042;-62
2023/12/15 10:11:07;;;;;;;61.58;11.88;;;;;;;;;;5026953;28;20049;-62
2023/12/15 10:13:33;;;;;;;57.40;9.48;;;;;;;;;;5011358;28;20091;-62
2023/12/15 10:16:00;;;;;;;58.20;10.52;;;;;;;;;;5026656;28;20126;-61
2023/12/15 10:18:26;;;;;;;65.18;10.00;;;;;;;;;;5027129;28;20048;-62
2023/12/15 10:20:55;;;;;;;47.38;9.50;;;;;;;;;;5044469;28;20504;-62
2023/12/15 10:23:31;;;;;;;72.28;12.20;;;;;;;;;;5047048;28;20448;-62
2023/12/15 10:26:06;;;;;;;58.45;10.35;;;;;;;;;;5030365;28;20041;-61
2023/12/15 10:28:40;;;;;;;65.70;10.23;;;;;;;;;;5030348;28;20068;-61
2023/12/15 10:31:07;;;;;;;61.45;9.77;;;;;;;;;;5031107;28;20045;-61
2023/12/15 10:33:34;;;;;;;48.35;8.60;;;;;;;;;;5051624;28;20052;-61
2023/12/15 10:36:01;;;;;;;61.85;9.70;;;;;;;;;;5050982;28;20048;-61
2023/12/15 10:38:31;;;;;;;60.08;10.55;;;;;;;;;;5032507;28;20128;-61
2023/12/15 10:40:57;;;;;;;55.20;9.55;;;;;;;;;;5049598;28;20041;-60
2023/12/15 10:43:24;;;;;;;58.58;10.35;;;;;;;;;;5031949;28;20040;-61
2023/12/15 10:45:53;;;;;;;66.80;9.18;;;;;;;;;;5051459;28;20041;-62
2023/12/15 10:48:19;;;;;;;66.15;9.60;;;;;;;;;;5050425;28;20057;-62
2023/12/15 10:50:46;;;;;;;58.40;9.32;;;;;;;;;;5032623;28;20048;-61
2023/12/15 10:53:16;;;;;;;63.50;10.80;;;;;;;;;;5033711;28;20409;-62
2023/12/15 10:55:46;;;;;;;61.45;9.60;;;;;;;;;;5032885;28;20047;-62
2023/12/15 10:58:13;;;;;;;66.65;13.13;;;;;;;;;;5031833;28;20052;-62
2023/12/15 11:00:39;;;;;;;63.72;11.13;;;;;;;;;;5033635;28;20068;-62
2023/12/15 11:03:06;;;;;;;61.10;9.70;;;;;;;;;;5032515;28;20045;-62
2023/12/15 11:05:33;;;;;;;52.08;12.07;;;;;;;;;;5049701;28;20059;-62
2023/12/15 11:07:59;;;;;;;36.30;8.70;;;;;;;;;;5053467;28;20091;-62
2023/12/15 11:10:26;;;;;;;54.72;9.27;;;;;;;;;;5036249;28;20053;-62
2023/12/15 11:12:55;;;;;;;61.33;8.90;;;;;;;;;;5036670;28;20123;-62
2023/12/15 11:15:23;;;;;;;39.67;9.77;;;;;;;;;;5036211;28;20095;-62
2023/12/15 11:17:53;;;;;;;54.63;10.32;;;;;;;;;;5053405;28;20044;-62
2023/12/15 11:20:19;;;;;;;58.30;9.63;;;;;;;;;;5054873;28;20056;-62
2023/12/15 11:22:51;;;;;;;44.10;9.05;;;;;;;;;;5055385;28;20503;-61
2023/12/15 11:25:18;;;;;;;60.33;11.77;;;;;;;;;;5049955;28;20136;-62
2023/12/15 11:28:07;;;;;;;48.75;7.88;;;;;;;;;;5030420;28;20033;-62
2023/12/15 11:30:36;;;;;;;58.28;12.02;;;;;;;;;;5054679;28;20049;-62
2023/12/15 11:33:26;;;;;;;50.78;9.60;;;;;;;;;;5054141;28;20049;-62
2023/12/15 11:36:06;;;;;;;55.95;8.63;;;;;;;;;;5051492;28;20037;-61
2023/12/15 11:38:33;;;;;;;54.53;8.88;;;;;;;;;;5050020;28;20120;-62
2023/12/15 11:41:00;;;;;;;48.10;8.70;;;;;;;;;;5052514;28;20520;-63
2023/12/15 11:43:30;;;;;;;48.25;8.57;;;;;;;;;;5037045;28;20053;-63
2023/12/15 11:45:57;;;;;;;58.22;7.78;;;;;;;;;;5053826;28;20040;-62
2023/12/15 11:48:24;;;;;;;52.50;8.98;;;;;;;;;;5036662;28;20049;-62
2023/12/15 11:50:50;;;;;;;47.95;8.35;;;;;;;;;;5050700;28;20045;-62
2023/12/15 11:53:16;;;;;;;46.20;8.60;;;;;;;;;;5033937;28;20515;-62
2023/12/15 11:55:44;;;;;;;36.63;7.32;;;;;;;;;;5048558;28;20446;-62
2023/12/15 11:58:11;;;;;;;36.13;8.50;;;;;;;;;;5053608;28;20097;-62
2023/12/15 12:00:37;;;;;;;48.30;8.27;;;;;;;;;;5053822;28;20044;-62
2023/12/15 12:03:09;;;;;;;33.60;7.88;;;;;;;;;;5054107;28;20037;-64
2023/12/15 12:05:35;;;;;;;46.25;7.60;;;;;;;;;;5035739;28;20471;-65
2023/12/15 12:08:01;;;;;;;29.35;5.95;;;;;;;;;;5035616;28;20041;-65
2023/12/15 12:10:31;;;;;;;41.97;7.15;;;;;;;;;;5052859;28;20041;-65
2023/12/15 12:12:58;;;;;;;40.15;7.25;;;;;;;;;;5044387;28;20123;-64
2023/12/15 12:15:24;;;;;;;36.75;6.88;;;;;;;;;;5033307;28;20044;-64
2023/12/15 12:17:51;;;;;;;36.60;6.43;;;;;;;;;;5034813;28;20037;-64
2023/12/15 12:20:17;;;;;;;35.22;5.35;;;;;;;;;;5053328;28;20060;-65
2023/12/15 12:22:44;;;;;;;30.48;5.80;;;;;;;;;;5047690;28;20099;-71
2023/12/15 12:25:11;;;;;;;37.90;5.82;;;;;;;;;;5031818;28;20128;-65
2023/12/15 12:27:37;;;;;;;42.53;6.18;;;;;;;;;;5051757;28;20253;-64
2023/12/15 12:30:10;;;;;;;41.28;8.05;;;;;;;;;;5051716;28;20048;-65
2023/12/15 12:32:37;;;;;;;41.50;8.75;;;;;;;;;;5044715;28;20112;-64
2023/12/15 12:35:03;;;;;;;42.75;8.25;;;;;;;;;;5034509;28;20128;-68
2023/12/15 12:37:30;;;;;;;34.50;5.78;;;;;;;;;;5052092;28;20037;-64
2023/12/15 12:39:56;;;;;;;42.78;7.13;;;;;;;;;;5034850;28;20080;-68
2023/12/15 12:42:23;;;;;;;35.03;6.43;;;;;;;;;;5034954;28;20097;-64
2023/12/15 12:44:52;;;;;;;32.10;4.90;;;;;;;;;;5051811;28;20090;-65
2023/12/15 12:47:19;;;;;;;35.80;5.90;;;;;;;;;;5053595;28;20051;-64
2023/12/15 12:49:46;;;;;;;26.98;5.32;;;;;;;;;;5052734;28;20496;-68
2023/12/15 12:52:12;;;;;;;32.70;4.85;;;;;;;;;;5053498;28;20051;-67
2023/12/15 12:54:39;;;;;;;38.60;6.45;;;;;;;;;;5052536;28;20040;-67
2023/12/15 12:57:05;;;;;;;32.30;7.28;;;;;;;;;;5052692;28;20037;-67
2023/12/15 12:59:31;;;;;;;25.33;5.22;;;;;;;;;;5052316;28;20052;-67
2023/12/15 13:01:57;;;;;;;34.50;6.13;;;;;;;;;;5052553;28;20090;-78
2023/12/15 13:04:24;;;;;;;24.85;4.80;;;;;;;;;;5033800;28;20460;-65
2023/12/15 13:06:50;;;;;;;30.70;5.50;;;;;;;;;;5053489;28;20072;-65
2023/12/15 13:09:18;;;;;;;29.95;5.85;;;;;;;;;;5052465;28;20045;-64
2023/12/15 13:11:48;;;;;;;27.08;6.28;;;;;;;;;;5030388;28;20083;-63
2023/12/15 13:14:14;;;;;;;30.85;5.90;;;;;;;;;;5030995;28;20123;-64
2023/12/15 13:16:41;;;;;;;32.15;6.20;;;;;;;;;;5052831;28;20094;-64
2023/12/15 13:19:07;;;;;;;32.78;6.10;;;;;;;;;;5050157;28;20480;-63
2023/12/15 13:21:34;;;;;;;24.08;5.20;;;;;;;;;;5050349;28;20120;-64
2023/12/15 13:24:00;;;;;;;27.25;5.20;;;;;;;;;;5033728;28;20090;-64
2023/12/15 13:26:26;;;;;;;22.30;4.50;;;;;;;;;;5048776;28;20041;-64
2023/12/15 13:28:55;;;;;;;27.73;4.53;;;;;;;;;;5049965;28;20037;-64
2023/12/15 13:31:23;;;;;;;30.35;5.68;;;;;;;;;;5048834;28;20045;-65
2023/12/15 13:33:50;;;;;;;38.55;6.30;;;;;;;;;;5052100;28;20045;-64
2023/12/15 13:36:17;;;;;;;28.80;5.50;;;;;;;;;;5051058;28;20432;-64
2023/12/15 13:38:43;;;;;;;30.67;4.55;;;;;;;;;;5049996;28;20041;-64
2023/12/15 13:41:10;;;;;;;25.92;5.18;;;;;;;;;;5033495;28;20073;-64
2023/12/15 13:43:39;;;;;;;21.77;5.15;;;;;;;;;;5034766;28;20051;-64
2023/12/15 13:46:06;;;;;;;29.55;4.95;;;;;;;;;;5033849;28;20049;-64
2023/12/15 13:48:32;;;;;;;31.85;4.75;;;;;;;;;;5030937;28;20088;-64
2023/12/15 13:50:59;;;;;;;27.63;4.85;;;;;;;;;;5025475;28;20068;-64
2023/12/15 13:53:28;;;;;;;23.20;5.25;;;;;;;;;;5046528;28;20485;-64
2023/12/15 13:55:54;;;;;;;25.58;5.35;;;;;;;;;;5030040;28;20045;-64
2023/12/15 13:58:21;;;;;;;27.05;5.80;;;;;;;;;;5039968;28;20109;-64
2023/12/15 14:00:47;;;;;;;31.63;5.45;;;;;;;;;;5042572;28;20123;-72
2023/12/15 14:03:14;;;;;;;32.25;5.40;;;;;;;;;;5046271;28;20438;-64
2023/12/15 14:05:40;;;;;;;39.45;6.07;;;;;;;;;;5049244;28;20048;-64
2023/12/15 14:08:07;;;;;;;32.95;7.38;;;;;;;;;;5050229;28;20168;-64
2023/12/15 14:10:34;;;;;;;30.23;8.05;;;;;;;;;;5049185;28;20085;-63
2023/12/15 14:13:00;;;;;;;33.20;7.20;;;;;;;;;;5042491;28;20409;-64
2023/12/15 14:15:26;;;;;;;36.90;8.00;;;;;;;;;;5050260;28;20497;-64
2023/12/15 14:17:53;;;;;;;37.55;7.18;;;;;;;;;;5051997;28;20416;-64